sensor_id;sensor_type;location;lat;lon;timestamp;P1;durP1;ratioP1;P2;durP2;ratioP2
6947;SDS011;3513;47.664;9.162;2023-02-13T00:00:48;368.53;;;33.63;;
6947;SDS011;3513;47.664;9.162;2023-02-13T00:03:14;76.10;;;20.43;;
6947;SDS011;3513;47.664;9.162;2023-02-13T00:05:40;116.13;;;22.50;;
6947;SDS011;3513;47.664;9.162;2023-02-13T00:08:06;69.30;;;17.83;;
6947;SDS011;3513;47.664;9.162;2023-02-13T00:10:31;74.20;;;20.80;;
6947;SDS011;3513;47.664;9.162;2023-02-13T00:12:57;398.97;;;30.30;;
6947;SDS011;3513;47.664;9.162;2023-02-13T00:15:23;196.70;;;19.60;;
6947;SDS011;3513;47.664;9.162;2023-02-13T00:17:49;250.07;;;26.70;;
6947;SDS011;3513;47.664;9.162;2023-02-13T00:20:15;79.53;;;18.33;;
6947;SDS011;3513;47.664;9.162;2023-02-13T00:22:41;35.37;;;17.10;;
6947;SDS011;3513;47.664;9.162;2023-02-13T00:25:07;29.73;;;17.00;;
6947;SDS011;3513;47.664;9.162;2023-02-13T00:27:33;40.97;;;20.23;;
6947;SDS011;3513;47.664;9.162;2023-02-13T00:29:59;37.57;;;20.03;;
6947;SDS011;3513;47.664;9.162;2023-02-13T00:32:24;44.23;;;21.63;;
6947;SDS011;3513;47.664;9.162;2023-02-13T00:34:50;38.90;;;20.90;;
6947;SDS011;3513;47.664;9.162;2023-02-13T00:37:16;41.77;;;20.00;;
6947;SDS011;3513;47.664;9.162;2023-02-13T00:39:42;55.40;;;23.50;;
6947;SDS011;3513;47.664;9.162;2023-02-13T00:42:08;235.97;;;32.47;;
6947;SDS011;3513;47.664;9.162;2023-02-13T00:44:33;74.27;;;26.40;;
6947;SDS011;3513;47.664;9.162;2023-02-13T00:46:59;93.53;;;27.27;;
6947;SDS011;3513;47.664;9.162;2023-02-13T00:49:24;71.90;;;26.80;;
6947;SDS011;3513;47.664;9.162;2023-02-13T00:51:50;64.10;;;25.77;;
6947;SDS011;3513;47.664;9.162;2023-02-13T00:54:16;118.27;;;29.30;;
6947;SDS011;3513;47.664;9.162;2023-02-13T00:56:42;83.00;;;27.03;;
6947;SDS011;3513;47.664;9.162;2023-02-13T00:59:08;58.43;;;27.93;;
6947;SDS011;3513;47.664;9.162;2023-02-13T01:01:33;60.60;;;28.30;;
6947;SDS011;3513;47.664;9.162;2023-02-13T01:03:59;68.80;;;30.10;;
6947;SDS011;3513;47.664;9.162;2023-02-13T01:06:25;54.10;;;26.60;;
6947;SDS011;3513;47.664;9.162;2023-02-13T01:08:51;58.70;;;27.70;;
6947;SDS011;3513;47.664;9.162;2023-02-13T01:11:16;65.60;;;28.20;;
6947;SDS011;3513;47.664;9.162;2023-02-13T01:13:43;56.80;;;25.57;;
6947;SDS011;3513;47.664;9.162;2023-02-13T01:16:09;64.17;;;25.73;;
6947;SDS011;3513;47.664;9.162;2023-02-13T01:18:35;50.07;;;24.63;;
6947;SDS011;3513;47.664;9.162;2023-02-13T01:21:03;53.77;;;26.97;;
6947;SDS011;3513;47.664;9.162;2023-02-13T01:23:31;62.87;;;25.87;;
6947;SDS011;3513;47.664;9.162;2023-02-13T01:25:58;99.73;;;28.13;;
6947;SDS011;3513;47.664;9.162;2023-02-13T01:28:25;148.20;;;28.13;;
6947;SDS011;3513;47.664;9.162;2023-02-13T01:30:54;59.93;;;23.17;;
6947;SDS011;3513;47.664;9.162;2023-02-13T01:33:25;47.60;;;22.20;;
6947;SDS011;3513;47.664;9.162;2023-02-13T01:35:52;180.37;;;28.20;;
6947;SDS011;3513;47.664;9.162;2023-02-13T01:38:18;113.47;;;25.50;;
6947;SDS011;3513;47.664;9.162;2023-02-13T01:40:47;48.83;;;23.87;;
6947;SDS011;3513;47.664;9.162;2023-02-13T01:43:15;48.73;;;23.00;;
6947;SDS011;3513;47.664;9.162;2023-02-13T01:45:41;54.90;;;27.20;;
6947;SDS011;3513;47.664;9.162;2023-02-13T01:48:11;54.90;;;26.00;;
6947;SDS011;3513;47.664;9.162;2023-02-13T01:50:45;53.37;;;25.47;;
6947;SDS011;3513;47.664;9.162;2023-02-13T01:53:20;50.30;;;25.00;;
6947;SDS011;3513;47.664;9.162;2023-02-13T01:56:10;51.20;;;24.70;;
6947;SDS011;3513;47.664;9.162;2023-02-13T01:58:52;61.27;;;27.00;;
6947;SDS011;3513;47.664;9.162;2023-02-13T02:01:20;50.97;;;24.40;;
6947;SDS011;3513;47.664;9.162;2023-02-13T02:03:57;53.90;;;25.93;;
6947;SDS011;3513;47.664;9.162;2023-02-13T02:06:43;51.17;;;26.20;;
6947;SDS011;3513;47.664;9.162;2023-02-13T02:09:15;59.27;;;26.83;;
6947;SDS011;3513;47.664;9.162;2023-02-13T02:11:52;56.33;;;27.20;;
6947;SDS011;3513;47.664;9.162;2023-02-13T02:14:28;52.07;;;26.43;;
6947;SDS011;3513;47.664;9.162;2023-02-13T02:16:55;61.97;;;29.00;;
6947;SDS011;3513;47.664;9.162;2023-02-13T02:19:25;57.77;;;29.17;;
6947;SDS011;3513;47.664;9.162;2023-02-13T02:32:56;59.40;;;28.27;;
6947;SDS011;3513;47.664;9.162;2023-02-13T02:35:51;62.17;;;29.50;;
6947;SDS011;3513;47.664;9.162;2023-02-13T02:49:58;54.93;;;29.60;;
6947;SDS011;3513;47.664;9.162;2023-02-13T02:55:30;52.07;;;27.40;;
6947;SDS011;3513;47.664;9.162;2023-02-13T02:58:12;61.03;;;27.70;;
6947;SDS011;3513;47.664;9.162;2023-02-13T03:01:06;56.43;;;27.63;;
6947;SDS011;3513;47.664;9.162;2023-02-13T03:03:55;51.90;;;26.57;;
6947;SDS011;3513;47.664;9.162;2023-02-13T03:06:52;59.47;;;28.70;;
6947;SDS011;3513;47.664;9.162;2023-02-13T03:09:22;63.73;;;28.07;;
6947;SDS011;3513;47.664;9.162;2023-02-13T03:12:18;57.30;;;28.63;;
6947;SDS011;3513;47.664;9.162;2023-02-13T03:15:05;54.73;;;28.97;;
6947;SDS011;3513;47.664;9.162;2023-02-13T03:17:31;67.37;;;29.10;;
6947;SDS011;3513;47.664;9.162;2023-02-13T03:20:19;64.83;;;28.67;;
6947;SDS011;3513;47.664;9.162;2023-02-13T03:23:15;65.33;;;29.70;;
6947;SDS011;3513;47.664;9.162;2023-02-13T03:28:35;66.40;;;29.63;;
6947;SDS011;3513;47.664;9.162;2023-02-13T03:31:53;60.83;;;29.87;;
6947;SDS011;3513;47.664;9.162;2023-02-13T03:34:34;65.03;;;29.87;;
6947;SDS011;3513;47.664;9.162;2023-02-13T03:37:26;61.90;;;30.13;;
6947;SDS011;3513;47.664;9.162;2023-02-13T03:40:18;62.03;;;31.07;;
6947;SDS011;3513;47.664;9.162;2023-02-13T03:45:23;60.30;;;29.43;;
6947;SDS011;3513;47.664;9.162;2023-02-13T03:48:11;61.67;;;29.77;;
6947;SDS011;3513;47.664;9.162;2023-02-13T03:50:59;60.67;;;29.10;;
6947;SDS011;3513;47.664;9.162;2023-02-13T03:53:27;55.87;;;28.80;;
6947;SDS011;3513;47.664;9.162;2023-02-13T03:55:57;56.73;;;27.83;;
6947;SDS011;3513;47.664;9.162;2023-02-13T03:58:45;59.43;;;29.27;;
6947;SDS011;3513;47.664;9.162;2023-02-13T04:01:33;61.33;;;28.90;;
6947;SDS011;3513;47.664;9.162;2023-02-13T04:04:07;60.53;;;28.87;;
6947;SDS011;3513;47.664;9.162;2023-02-13T04:09:36;72.00;;;31.00;;
6947;SDS011;3513;47.664;9.162;2023-02-13T04:17:40;60.80;;;29.37;;
6947;SDS011;3513;47.664;9.162;2023-02-13T04:20:29;70.10;;;32.77;;
6947;SDS011;3513;47.664;9.162;2023-02-13T04:22:56;61.03;;;27.87;;
6947;SDS011;3513;47.664;9.162;2023-02-13T04:25:22;74.33;;;32.20;;
6947;SDS011;3513;47.664;9.162;2023-02-13T04:27:47;63.27;;;29.23;;
6947;SDS011;3513;47.664;9.162;2023-02-13T04:30:13;55.97;;;27.40;;
6947;SDS011;3513;47.664;9.162;2023-02-13T04:32:39;54.93;;;26.73;;
6947;SDS011;3513;47.664;9.162;2023-02-13T04:35:04;50.67;;;27.70;;
6947;SDS011;3513;47.664;9.162;2023-02-13T04:37:30;57.97;;;28.40;;
6947;SDS011;3513;47.664;9.162;2023-02-13T04:39:56;57.60;;;28.43;;
6947;SDS011;3513;47.664;9.162;2023-02-13T04:42:22;55.10;;;25.77;;
6947;SDS011;3513;47.664;9.162;2023-02-13T04:44:48;56.20;;;27.23;;
6947;SDS011;3513;47.664;9.162;2023-02-13T04:47:14;74.03;;;29.77;;
6947;SDS011;3513;47.664;9.162;2023-02-13T04:49:40;62.93;;;30.63;;
6947;SDS011;3513;47.664;9.162;2023-02-13T04:52:05;53.10;;;28.03;;
6947;SDS011;3513;47.664;9.162;2023-02-13T04:54:31;57.73;;;27.60;;
6947;SDS011;3513;47.664;9.162;2023-02-13T04:56:57;57.50;;;28.83;;
6947;SDS011;3513;47.664;9.162;2023-02-13T04:59:22;59.03;;;27.80;;
6947;SDS011;3513;47.664;9.162;2023-02-13T05:01:48;63.27;;;29.10;;
6947;SDS011;3513;47.664;9.162;2023-02-13T05:04:14;62.63;;;29.03;;
6947;SDS011;3513;47.664;9.162;2023-02-13T05:06:41;58.23;;;28.30;;
6947;SDS011;3513;47.664;9.162;2023-02-13T05:09:08;56.30;;;28.70;;
6947;SDS011;3513;47.664;9.162;2023-02-13T05:11:34;59.77;;;30.00;;
6947;SDS011;3513;47.664;9.162;2023-02-13T05:14:00;59.17;;;29.00;;
6947;SDS011;3513;47.664;9.162;2023-02-13T05:16:26;58.10;;;29.03;;
6947;SDS011;3513;47.664;9.162;2023-02-13T05:18:52;58.93;;;29.00;;
6947;SDS011;3513;47.664;9.162;2023-02-13T05:21:19;55.77;;;29.53;;
6947;SDS011;3513;47.664;9.162;2023-02-13T05:24:04;66.57;;;30.23;;
6947;SDS011;3513;47.664;9.162;2023-02-13T05:26:29;74.30;;;32.50;;
6947;SDS011;3513;47.664;9.162;2023-02-13T05:28:55;75.17;;;31.20;;
6947;SDS011;3513;47.664;9.162;2023-02-13T05:31:39;69.30;;;32.50;;
6947;SDS011;3513;47.664;9.162;2023-02-13T05:34:05;69.60;;;31.80;;
6947;SDS011;3513;47.664;9.162;2023-02-13T05:36:31;67.37;;;29.77;;
6947;SDS011;3513;47.664;9.162;2023-02-13T05:38:57;79.27;;;32.93;;
6947;SDS011;3513;47.664;9.162;2023-02-13T05:41:23;78.27;;;33.20;;
6947;SDS011;3513;47.664;9.162;2023-02-13T05:43:49;74.03;;;33.13;;
6947;SDS011;3513;47.664;9.162;2023-02-13T05:46:14;74.47;;;33.50;;
6947;SDS011;3513;47.664;9.162;2023-02-13T05:48:40;73.93;;;32.57;;
6947;SDS011;3513;47.664;9.162;2023-02-13T05:51:06;72.03;;;32.57;;
6947;SDS011;3513;47.664;9.162;2023-02-13T05:53:32;68.90;;;32.50;;
6947;SDS011;3513;47.664;9.162;2023-02-13T05:56:00;71.70;;;33.43;;
6947;SDS011;3513;47.664;9.162;2023-02-13T05:58:27;85.10;;;37.87;;
6947;SDS011;3513;47.664;9.162;2023-02-13T06:00:54;80.67;;;36.33;;
6947;SDS011;3513;47.664;9.162;2023-02-13T06:03:25;78.47;;;34.47;;
6947;SDS011;3513;47.664;9.162;2023-02-13T06:05:52;74.50;;;35.17;;
6947;SDS011;3513;47.664;9.162;2023-02-13T06:08:18;68.57;;;30.57;;
6947;SDS011;3513;47.664;9.162;2023-02-13T06:10:45;68.67;;;32.90;;
6947;SDS011;3513;47.664;9.162;2023-02-13T06:13:11;71.17;;;33.20;;
6947;SDS011;3513;47.664;9.162;2023-02-13T06:15:38;82.63;;;32.70;;
6947;SDS011;3513;47.664;9.162;2023-02-13T06:18:04;79.67;;;32.23;;
6947;SDS011;3513;47.664;9.162;2023-02-13T06:20:29;70.20;;;31.33;;
6947;SDS011;3513;47.664;9.162;2023-02-13T06:22:55;73.00;;;32.23;;
6947;SDS011;3513;47.664;9.162;2023-02-13T06:25:21;59.97;;;30.47;;
6947;SDS011;3513;47.664;9.162;2023-02-13T06:27:47;77.17;;;31.77;;
6947;SDS011;3513;47.664;9.162;2023-02-13T06:30:13;79.80;;;32.27;;
6947;SDS011;3513;47.664;9.162;2023-02-13T06:32:39;71.03;;;31.20;;
6947;SDS011;3513;47.664;9.162;2023-02-13T06:35:05;71.53;;;31.27;;
6947;SDS011;3513;47.664;9.162;2023-02-13T06:37:31;77.97;;;33.50;;
6947;SDS011;3513;47.664;9.162;2023-02-13T06:39:58;86.30;;;34.10;;
6947;SDS011;3513;47.664;9.162;2023-02-13T06:42:23;71.60;;;31.47;;
6947;SDS011;3513;47.664;9.162;2023-02-13T06:44:49;70.90;;;33.70;;
6947;SDS011;3513;47.664;9.162;2023-02-13T06:47:15;76.90;;;32.80;;
6947;SDS011;3513;47.664;9.162;2023-02-13T06:49:41;80.23;;;36.03;;
6947;SDS011;3513;47.664;9.162;2023-02-13T06:52:07;75.50;;;32.73;;
6947;SDS011;3513;47.664;9.162;2023-02-13T06:54:32;72.37;;;31.67;;
6947;SDS011;3513;47.664;9.162;2023-02-13T06:56:58;82.90;;;33.27;;
6947;SDS011;3513;47.664;9.162;2023-02-13T06:59:24;79.30;;;33.00;;
6947;SDS011;3513;47.664;9.162;2023-02-13T07:01:50;74.90;;;36.20;;
6947;SDS011;3513;47.664;9.162;2023-02-13T07:04:16;76.30;;;33.80;;
6947;SDS011;3513;47.664;9.162;2023-02-13T07:06:42;71.83;;;32.73;;
6947;SDS011;3513;47.664;9.162;2023-02-13T07:09:08;75.00;;;32.83;;
6947;SDS011;3513;47.664;9.162;2023-02-13T07:11:34;76.33;;;34.80;;
6947;SDS011;3513;47.664;9.162;2023-02-13T07:14:02;83.07;;;36.50;;
6947;SDS011;3513;47.664;9.162;2023-02-13T07:16:28;71.13;;;33.10;;
6947;SDS011;3513;47.664;9.162;2023-02-13T07:18:54;68.03;;;32.47;;
6947;SDS011;3513;47.664;9.162;2023-02-13T07:21:20;69.67;;;28.77;;
6947;SDS011;3513;47.664;9.162;2023-02-13T07:23:45;69.93;;;34.27;;
6947;SDS011;3513;47.664;9.162;2023-02-13T07:26:11;79.63;;;33.50;;
6947;SDS011;3513;47.664;9.162;2023-02-13T07:28:36;81.23;;;34.43;;
6947;SDS011;3513;47.664;9.162;2023-02-13T07:31:03;77.07;;;32.87;;
6947;SDS011;3513;47.664;9.162;2023-02-13T07:33:29;79.53;;;34.23;;
6947;SDS011;3513;47.664;9.162;2023-02-13T07:35:56;83.97;;;33.73;;
6947;SDS011;3513;47.664;9.162;2023-02-13T07:38:21;98.17;;;39.20;;
6947;SDS011;3513;47.664;9.162;2023-02-13T07:40:47;90.50;;;37.73;;
6947;SDS011;3513;47.664;9.162;2023-02-13T07:43:13;81.33;;;33.80;;
6947;SDS011;3513;47.664;9.162;2023-02-13T07:45:38;85.90;;;35.37;;
6947;SDS011;3513;47.664;9.162;2023-02-13T07:48:04;89.53;;;36.67;;
6947;SDS011;3513;47.664;9.162;2023-02-13T07:50:30;73.57;;;32.70;;
6947;SDS011;3513;47.664;9.162;2023-02-13T07:52:58;82.17;;;35.60;;
6947;SDS011;3513;47.664;9.162;2023-02-13T07:55:25;94.93;;;35.43;;
6947;SDS011;3513;47.664;9.162;2023-02-13T07:57:52;84.43;;;33.33;;
6947;SDS011;3513;47.664;9.162;2023-02-13T08:00:18;86.83;;;36.97;;
6947;SDS011;3513;47.664;9.162;2023-02-13T08:02:44;77.20;;;32.70;;
6947;SDS011;3513;47.664;9.162;2023-02-13T08:05:10;81.27;;;33.87;;
6947;SDS011;3513;47.664;9.162;2023-02-13T08:07:36;75.47;;;33.00;;
6947;SDS011;3513;47.664;9.162;2023-02-13T08:10:03;82.60;;;34.73;;
6947;SDS011;3513;47.664;9.162;2023-02-13T08:12:51;66.50;;;32.33;;
6947;SDS011;3513;47.664;9.162;2023-02-13T08:15:17;76.70;;;32.93;;
6947;SDS011;3513;47.664;9.162;2023-02-13T08:17:43;79.20;;;33.57;;
6947;SDS011;3513;47.664;9.162;2023-02-13T08:20:09;56.50;;;27.67;;
6947;SDS011;3513;47.664;9.162;2023-02-13T08:22:36;68.83;;;30.47;;
6947;SDS011;3513;47.664;9.162;2023-02-13T08:25:02;69.57;;;30.47;;
6947;SDS011;3513;47.664;9.162;2023-02-13T08:27:28;68.63;;;29.87;;
6947;SDS011;3513;47.664;9.162;2023-02-13T08:29:54;76.50;;;32.70;;
6947;SDS011;3513;47.664;9.162;2023-02-13T08:32:23;72.70;;;34.83;;
6947;SDS011;3513;47.664;9.162;2023-02-13T08:34:49;74.23;;;31.47;;
6947;SDS011;3513;47.664;9.162;2023-02-13T08:37:16;70.77;;;32.33;;
6947;SDS011;3513;47.664;9.162;2023-02-13T08:39:42;76.97;;;31.90;;
6947;SDS011;3513;47.664;9.162;2023-02-13T08:42:07;73.33;;;32.27;;
6947;SDS011;3513;47.664;9.162;2023-02-13T08:44:33;64.50;;;30.10;;
6947;SDS011;3513;47.664;9.162;2023-02-13T08:46:59;68.90;;;31.57;;
6947;SDS011;3513;47.664;9.162;2023-02-13T08:49:28;68.93;;;30.27;;
6947;SDS011;3513;47.664;9.162;2023-02-13T08:51:54;87.03;;;34.53;;
6947;SDS011;3513;47.664;9.162;2023-02-13T08:54:19;73.83;;;32.10;;
6947;SDS011;3513;47.664;9.162;2023-02-13T08:56:45;82.70;;;32.30;;
6947;SDS011;3513;47.664;9.162;2023-02-13T08:59:11;84.93;;;35.23;;
6947;SDS011;3513;47.664;9.162;2023-02-13T09:01:37;63.10;;;31.40;;
6947;SDS011;3513;47.664;9.162;2023-02-13T09:04:03;71.33;;;32.03;;
6947;SDS011;3513;47.664;9.162;2023-02-13T09:06:28;75.53;;;31.50;;
6947;SDS011;3513;47.664;9.162;2023-02-13T09:08:54;76.27;;;30.97;;
6947;SDS011;3513;47.664;9.162;2023-02-13T09:11:20;75.43;;;30.03;;
6947;SDS011;3513;47.664;9.162;2023-02-13T09:13:47;76.30;;;33.13;;
6947;SDS011;3513;47.664;9.162;2023-02-13T09:16:14;78.00;;;33.93;;
6947;SDS011;3513;47.664;9.162;2023-02-13T09:18:40;82.33;;;33.50;;
6947;SDS011;3513;47.664;9.162;2023-02-13T09:21:07;66.00;;;30.13;;
6947;SDS011;3513;47.664;9.162;2023-02-13T09:23:38;73.43;;;31.37;;
6947;SDS011;3513;47.664;9.162;2023-02-13T09:26:05;66.73;;;30.37;;
6947;SDS011;3513;47.664;9.162;2023-02-13T09:28:36;71.03;;;31.60;;
6947;SDS011;3513;47.664;9.162;2023-02-13T09:31:11;80.77;;;33.33;;
6947;SDS011;3513;47.664;9.162;2023-02-13T09:33:39;79.67;;;32.30;;
6947;SDS011;3513;47.664;9.162;2023-02-13T09:36:06;70.43;;;30.97;;
6947;SDS011;3513;47.664;9.162;2023-02-13T09:38:34;70.20;;;30.90;;
6947;SDS011;3513;47.664;9.162;2023-02-13T09:41:07;73.63;;;32.33;;
6947;SDS011;3513;47.664;9.162;2023-02-13T09:43:46;67.23;;;31.83;;
6947;SDS011;3513;47.664;9.162;2023-02-13T09:49:07;72.60;;;34.83;;
6947;SDS011;3513;47.664;9.162;2023-02-13T09:51:40;80.57;;;33.20;;
6947;SDS011;3513;47.664;9.162;2023-02-13T09:54:11;71.50;;;31.67;;
6947;SDS011;3513;47.664;9.162;2023-02-13T10:05:16;83.00;;;32.77;;
6947;SDS011;3513;47.664;9.162;2023-02-13T10:10:51;71.43;;;31.20;;
6947;SDS011;3513;47.664;9.162;2023-02-13T10:13:35;79.90;;;32.93;;
6947;SDS011;3513;47.664;9.162;2023-02-13T10:16:26;78.60;;;33.30;;
6947;SDS011;3513;47.664;9.162;2023-02-13T10:21:50;91.43;;;34.57;;
6947;SDS011;3513;47.664;9.162;2023-02-13T10:24:30;73.43;;;32.20;;
6947;SDS011;3513;47.664;9.162;2023-02-13T10:27:01;71.50;;;31.80;;
6947;SDS011;3513;47.664;9.162;2023-02-13T10:30:00;69.07;;;32.47;;
6947;SDS011;3513;47.664;9.162;2023-02-13T10:38:16;77.03;;;32.00;;
6947;SDS011;3513;47.664;9.162;2023-02-13T10:40:47;75.23;;;33.93;;
6947;SDS011;3513;47.664;9.162;2023-02-13T10:49:14;81.50;;;34.63;;
6947;SDS011;3513;47.664;9.162;2023-02-13T11:02:57;70.37;;;30.87;;
6947;SDS011;3513;47.664;9.162;2023-02-13T11:05:25;70.97;;;31.67;;
6947;SDS011;3513;47.664;9.162;2023-02-13T11:07:56;70.87;;;33.20;;
6947;SDS011;3513;47.664;9.162;2023-02-13T11:10:24;83.77;;;33.73;;
6947;SDS011;3513;47.664;9.162;2023-02-13T11:12:50;86.70;;;35.03;;
6947;SDS011;3513;47.664;9.162;2023-02-13T11:15:30;77.70;;;34.43;;
6947;SDS011;3513;47.664;9.162;2023-02-13T11:17:58;78.60;;;33.67;;
6947;SDS011;3513;47.664;9.162;2023-02-13T11:20:45;73.77;;;34.60;;
6947;SDS011;3513;47.664;9.162;2023-02-13T11:23:32;79.70;;;35.13;;
6947;SDS011;3513;47.664;9.162;2023-02-13T11:26:02;76.13;;;33.00;;
6947;SDS011;3513;47.664;9.162;2023-02-13T11:28:33;70.80;;;33.57;;
6947;SDS011;3513;47.664;9.162;2023-02-13T11:31:25;71.80;;;35.10;;
6947;SDS011;3513;47.664;9.162;2023-02-13T11:33:56;83.50;;;34.27;;
6947;SDS011;3513;47.664;9.162;2023-02-13T11:36:28;75.13;;;32.20;;
6947;SDS011;3513;47.664;9.162;2023-02-13T11:39:05;80.90;;;33.83;;
6947;SDS011;3513;47.664;9.162;2023-02-13T11:41:42;73.30;;;33.67;;
6947;SDS011;3513;47.664;9.162;2023-02-13T11:44:18;81.10;;;34.37;;
6947;SDS011;3513;47.664;9.162;2023-02-13T11:49:16;65.37;;;30.73;;
6947;SDS011;3513;47.664;9.162;2023-02-13T11:51:53;79.90;;;35.27;;
6947;SDS011;3513;47.664;9.162;2023-02-13T11:57:01;79.63;;;35.83;;
6947;SDS011;3513;47.664;9.162;2023-02-13T11:59:41;72.70;;;34.30;;
6947;SDS011;3513;47.664;9.162;2023-02-13T12:02:18;76.60;;;33.27;;
6947;SDS011;3513;47.664;9.162;2023-02-13T12:04:50;82.83;;;36.00;;
6947;SDS011;3513;47.664;9.162;2023-02-13T12:07:39;75.67;;;33.23;;
6947;SDS011;3513;47.664;9.162;2023-02-13T12:15:44;74.33;;;32.23;;
6947;SDS011;3513;47.664;9.162;2023-02-13T12:23:41;100.37;;;43.43;;
6947;SDS011;3513;47.664;9.162;2023-02-13T12:26:22;70.63;;;34.10;;
6947;SDS011;3513;47.664;9.162;2023-02-13T12:29:18;80.47;;;33.67;;
6947;SDS011;3513;47.664;9.162;2023-02-13T12:40:17;67.00;;;31.37;;
6947;SDS011;3513;47.664;9.162;2023-02-13T12:45:52;80.87;;;33.77;;
6947;SDS011;3513;47.664;9.162;2023-02-13T12:51:32;69.63;;;32.90;;
6947;SDS011;3513;47.664;9.162;2023-02-13T13:10:32;67.83;;;33.10;;
6947;SDS011;3513;47.664;9.162;2023-02-13T13:13:12;66.70;;;31.80;;
6947;SDS011;3513;47.664;9.162;2023-02-13T13:27:21;65.83;;;32.27;;
6947;SDS011;3513;47.664;9.162;2023-02-13T13:29:54;61.40;;;30.20;;
6947;SDS011;3513;47.664;9.162;2023-02-13T13:32:23;66.60;;;30.77;;
6947;SDS011;3513;47.664;9.162;2023-02-13T13:34:51;61.63;;;30.17;;
6947;SDS011;3513;47.664;9.162;2023-02-13T13:45:29;71.60;;;31.70;;
6947;SDS011;3513;47.664;9.162;2023-02-13T13:50:30;72.07;;;31.20;;
6947;SDS011;3513;47.664;9.162;2023-02-13T13:53:04;60.97;;;30.87;;
6947;SDS011;3513;47.664;9.162;2023-02-13T13:58:41;66.73;;;31.27;;
6947;SDS011;3513;47.664;9.162;2023-02-13T14:03:39;69.33;;;30.30;;
6947;SDS011;3513;47.664;9.162;2023-02-13T14:06:08;73.47;;;32.50;;
6947;SDS011;3513;47.664;9.162;2023-02-13T14:11:04;71.27;;;33.37;;
6947;SDS011;3513;47.664;9.162;2023-02-13T14:13:50;65.77;;;32.83;;
6947;SDS011;3513;47.664;9.162;2023-02-13T14:22:30;78.30;;;30.73;;
6947;SDS011;3513;47.664;9.162;2023-02-13T14:25:04;61.50;;;30.47;;
6947;SDS011;3513;47.664;9.162;2023-02-13T14:27:32;63.50;;;29.10;;
6947;SDS011;3513;47.664;9.162;2023-02-13T14:30:01;65.10;;;32.57;;
6947;SDS011;3513;47.664;9.162;2023-02-13T14:32:46;61.47;;;29.33;;
6947;SDS011;3513;47.664;9.162;2023-02-13T14:37:37;59.53;;;29.33;;
6947;SDS011;3513;47.664;9.162;2023-02-13T14:42:42;55.30;;;28.87;;
6947;SDS011;3513;47.664;9.162;2023-02-13T14:45:12;64.83;;;28.70;;
6947;SDS011;3513;47.664;9.162;2023-02-13T14:47:42;76.80;;;31.73;;
6947;SDS011;3513;47.664;9.162;2023-02-13T14:50:17;56.23;;;29.07;;
6947;SDS011;3513;47.664;9.162;2023-02-13T14:52:45;63.93;;;28.00;;
6947;SDS011;3513;47.664;9.162;2023-02-13T15:00:40;66.70;;;31.80;;
6947;SDS011;3513;47.664;9.162;2023-02-13T15:03:24;65.50;;;30.80;;
6947;SDS011;3513;47.664;9.162;2023-02-13T15:05:55;67.67;;;31.07;;
6947;SDS011;3513;47.664;9.162;2023-02-13T15:08:27;64.83;;;31.83;;
6947;SDS011;3513;47.664;9.162;2023-02-13T15:11:00;70.80;;;32.57;;
6947;SDS011;3513;47.664;9.162;2023-02-13T15:13:33;63.33;;;30.33;;
6947;SDS011;3513;47.664;9.162;2023-02-13T15:16:07;64.20;;;30.97;;
6947;SDS011;3513;47.664;9.162;2023-02-13T15:21:17;65.27;;;29.60;;
6947;SDS011;3513;47.664;9.162;2023-02-13T15:23:48;64.57;;;31.07;;
6947;SDS011;3513;47.664;9.162;2023-02-13T15:26:18;65.20;;;31.10;;
6947;SDS011;3513;47.664;9.162;2023-02-13T15:29:00;59.00;;;29.50;;
6947;SDS011;3513;47.664;9.162;2023-02-13T15:31:31;67.00;;;32.00;;
6947;SDS011;3513;47.664;9.162;2023-02-13T15:33:59;60.77;;;30.43;;
6947;SDS011;3513;47.664;9.162;2023-02-13T15:36:32;66.10;;;31.93;;
6947;SDS011;3513;47.664;9.162;2023-02-13T15:39:03;60.20;;;29.33;;
6947;SDS011;3513;47.664;9.162;2023-02-13T15:41:32;56.00;;;26.53;;
6947;SDS011;3513;47.664;9.162;2023-02-13T15:44:02;59.73;;;29.27;;
6947;SDS011;3513;47.664;9.162;2023-02-13T15:46:29;62.93;;;30.90;;
6947;SDS011;3513;47.664;9.162;2023-02-13T15:48:57;60.03;;;28.70;;
6947;SDS011;3513;47.664;9.162;2023-02-13T15:51:29;63.70;;;29.50;;
6947;SDS011;3513;47.664;9.162;2023-02-13T15:56:50;59.23;;;29.43;;
6947;SDS011;3513;47.664;9.162;2023-02-13T15:59:17;59.30;;;27.97;;
6947;SDS011;3513;47.664;9.162;2023-02-13T16:01:44;72.00;;;31.80;;
6947;SDS011;3513;47.664;9.162;2023-02-13T16:04:11;61.33;;;29.00;;
6947;SDS011;3513;47.664;9.162;2023-02-13T16:06:39;58.67;;;28.80;;
6947;SDS011;3513;47.664;9.162;2023-02-13T16:09:20;67.70;;;32.57;;
6947;SDS011;3513;47.664;9.162;2023-02-13T16:12:01;62.90;;;28.00;;
6947;SDS011;3513;47.664;9.162;2023-02-13T16:14:48;59.70;;;29.87;;
6947;SDS011;3513;47.664;9.162;2023-02-13T16:20:02;61.27;;;30.50;;
6947;SDS011;3513;47.664;9.162;2023-02-13T16:22:38;65.93;;;31.70;;
6947;SDS011;3513;47.664;9.162;2023-02-13T16:25:14;65.03;;;29.87;;
6947;SDS011;3513;47.664;9.162;2023-02-13T16:27:59;62.50;;;31.30;;
6947;SDS011;3513;47.664;9.162;2023-02-13T16:30:29;67.73;;;31.43;;
6947;SDS011;3513;47.664;9.162;2023-02-13T16:35:40;73.37;;;32.40;;
6947;SDS011;3513;47.664;9.162;2023-02-13T16:40:55;74.57;;;33.20;;
6947;SDS011;3513;47.664;9.162;2023-02-13T16:43:38;67.50;;;32.47;;
6947;SDS011;3513;47.664;9.162;2023-02-13T16:48:37;61.20;;;31.67;;
6947;SDS011;3513;47.664;9.162;2023-02-13T16:51:03;76.23;;;35.60;;
6947;SDS011;3513;47.664;9.162;2023-02-13T16:53:29;64.03;;;33.67;;
6947;SDS011;3513;47.664;9.162;2023-02-13T16:55:58;91.57;;;36.40;;
6947;SDS011;3513;47.664;9.162;2023-02-13T16:58:26;85.90;;;33.80;;
6947;SDS011;3513;47.664;9.162;2023-02-13T17:00:52;71.93;;;34.77;;
6947;SDS011;3513;47.664;9.162;2023-02-13T17:03:18;83.20;;;36.30;;
6947;SDS011;3513;47.664;9.162;2023-02-13T17:05:44;79.93;;;35.03;;
6947;SDS011;3513;47.664;9.162;2023-02-13T17:08:10;81.77;;;35.17;;
6947;SDS011;3513;47.664;9.162;2023-02-13T17:10:36;95.10;;;35.70;;
6947;SDS011;3513;47.664;9.162;2023-02-13T17:15:35;78.27;;;34.83;;
6947;SDS011;3513;47.664;9.162;2023-02-13T17:18:04;83.17;;;36.57;;
6947;SDS011;3513;47.664;9.162;2023-02-13T17:20:31;85.77;;;37.47;;
6947;SDS011;3513;47.664;9.162;2023-02-13T17:22:59;71.30;;;32.57;;
6947;SDS011;3513;47.664;9.162;2023-02-13T17:27:54;80.03;;;35.13;;
6947;SDS011;3513;47.664;9.162;2023-02-13T17:30:26;82.93;;;35.70;;
6947;SDS011;3513;47.664;9.162;2023-02-13T17:32:58;71.90;;;33.90;;
6947;SDS011;3513;47.664;9.162;2023-02-13T17:35:26;73.20;;;34.67;;
6947;SDS011;3513;47.664;9.162;2023-02-13T17:37:52;76.20;;;35.90;;
6947;SDS011;3513;47.664;9.162;2023-02-13T17:40:19;79.77;;;37.00;;
6947;SDS011;3513;47.664;9.162;2023-02-13T17:42:51;80.27;;;35.40;;
6947;SDS011;3513;47.664;9.162;2023-02-13T17:45:18;87.07;;;34.67;;
6947;SDS011;3513;47.664;9.162;2023-02-13T17:47:45;74.77;;;33.70;;
6947;SDS011;3513;47.664;9.162;2023-02-13T17:50:11;76.87;;;32.20;;
6947;SDS011;3513;47.664;9.162;2023-02-13T17:52:37;82.40;;;35.70;;
6947;SDS011;3513;47.664;9.162;2023-02-13T17:55:05;82.63;;;36.03;;
6947;SDS011;3513;47.664;9.162;2023-02-13T17:57:31;74.93;;;34.70;;
6947;SDS011;3513;47.664;9.162;2023-02-13T17:59:57;85.43;;;35.63;;
6947;SDS011;3513;47.664;9.162;2023-02-13T18:02:27;87.37;;;39.07;;
6947;SDS011;3513;47.664;9.162;2023-02-13T18:04:53;80.80;;;35.60;;
6947;SDS011;3513;47.664;9.162;2023-02-13T18:07:19;92.00;;;36.40;;
6947;SDS011;3513;47.664;9.162;2023-02-13T18:09:45;80.37;;;34.80;;
6947;SDS011;3513;47.664;9.162;2023-02-13T18:12:21;79.17;;;35.10;;
6947;SDS011;3513;47.664;9.162;2023-02-13T18:14:48;83.23;;;34.83;;
6947;SDS011;3513;47.664;9.162;2023-02-13T18:17:15;92.20;;;36.80;;
6947;SDS011;3513;47.664;9.162;2023-02-13T18:19:41;79.53;;;35.00;;
6947;SDS011;3513;47.664;9.162;2023-02-13T18:22:08;82.73;;;34.37;;